sensor_id;sensor_type;location;lat;lon;timestamp;pressure;altitude;pressure_sealevel;temperature;humidity
84835;BME280;75078;42.636;23.198;2024-01-16T00:00:46;90626.34;;;4.62;75.22
84835;BME280;75078;42.636;23.198;2024-01-16T00:03:12;90633.22;;;4.62;76.23
84835;BME280;75078;42.636;23.198;2024-01-16T00:05:37;90629.63;;;4.63;74.29
84835;BME280;75078;42.636;23.198;2024-01-16T00:08:03;90621.63;;;4.64;75.26
84835;BME280;75078;42.636;23.198;2024-01-16T00:10:29;90616.53;;;4.64;74.80
84835;BME280;75078;42.636;23.198;2024-01-16T00:12:54;90628.53;;;4.64;75.06
84835;BME280;75078;42.636;23.198;2024-01-16T00:15:19;90626.78;;;4.68;74.75
84835;BME280;75078;42.636;23.198;2024-01-16T00:17:45;90639.13;;;4.66;75.68
84835;BME280;75078;42.636;23.198;2024-01-16T00:20:10;90645.75;;;4.70;74.68
84835;BME280;75078;42.636;23.198;2024-01-16T00:22:36;90660.50;;;4.84;74.90
84835;BME280;75078;42.636;23.198;2024-01-16T00:25:01;90661.19;;;4.81;74.43
84835;BME280;75078;42.636;23.198;2024-01-16T00:27:27;90652.44;;;4.82;74.32
84835;BME280;75078;42.636;23.198;2024-01-16T00:29:52;90657.53;;;4.82;74.93
84835;BME280;75078;42.636;23.198;2024-01-16T00:32:17;90670.59;;;4.77;75.18
84835;BME280;75078;42.636;23.198;2024-01-16T00:34:43;90675.06;;;4.83;74.65
84835;BME280;75078;42.636;23.198;2024-01-16T00:37:08;90673.94;;;4.81;74.77
84835;BME280;75078;42.636;23.198;2024-01-16T00:39:33;90665.91;;;4.79;75.47
84835;BME280;75078;42.636;23.198;2024-01-16T00:41:59;90670.72;;;4.84;73.85
84835;BME280;75078;42.636;23.198;2024-01-16T00:44:25;90666.19;;;4.74;75.82
84835;BME280;75078;42.636;23.198;2024-01-16T00:46:50;90685.19;;;4.80;74.12
84835;BME280;75078;42.636;23.198;2024-01-16T00:49:16;90678.66;;;4.79;74.75
84835;BME280;75078;42.636;23.198;2024-01-16T00:51:41;90683.09;;;4.85;74.45
84835;BME280;75078;42.636;23.198;2024-01-16T00:54:06;90681.28;;;4.86;74.71
84835;BME280;75078;42.636;23.198;2024-01-16T00:56:35;90687.06;;;4.83;74.67
84835;BME280;75078;42.636;23.198;2024-01-16T00:59:01;90690.00;;;4.85;74.08
84835;BME280;75078;42.636;23.198;2024-01-16T01:01:26;90687.34;;;4.78;74.67
84835;BME280;75078;42.636;23.198;2024-01-16T01:03:52;90693.84;;;4.72;75.86
84835;BME280;75078;42.636;23.198;2024-01-16T01:06:17;90689.41;;;4.69;75.03
84835;BME280;75078;42.636;23.198;2024-01-16T01:08:43;90686.47;;;4.67;75.93
84835;BME280;75078;42.636;23.198;2024-01-16T01:11:08;90681.44;;;4.70;74.86
84835;BME280;75078;42.636;23.198;2024-01-16T01:13:34;90685.00;;;4.66;74.92
84835;BME280;75078;42.636;23.198;2024-01-16T01:15:59;90704.69;;;4.69;74.95
84835;BME280;75078;42.636;23.198;2024-01-16T01:18:25;90691.53;;;4.63;75.56
84835;BME280;75078;42.636;23.198;2024-01-16T01:20:50;90701.66;;;4.60;76.54
84835;BME280;75078;42.636;23.198;2024-01-16T01:23:16;90699.56;;;4.65;74.89
84835;BME280;75078;42.636;23.198;2024-01-16T01:25:41;90700.69;;;4.68;75.95
84835;BME280;75078;42.636;23.198;2024-01-16T01:28:08;90700.97;;;4.63;76.07
84835;BME280;75078;42.636;23.198;2024-01-16T01:30:33;90698.06;;;4.64;77.11
84835;BME280;75078;42.636;23.198;2024-01-16T01:32:59;90705.41;;;4.66;77.02
84835;BME280;75078;42.636;23.198;2024-01-16T01:35:24;90708.22;;;4.61;77.88
84835;BME280;75078;42.636;23.198;2024-01-16T01:37:49;90698.03;;;4.61;78.30
84835;BME280;75078;42.636;23.198;2024-01-16T01:40:15;90705.19;;;4.52;79.56
84835;BME280;75078;42.636;23.198;2024-01-16T01:42:43;90708.00;;;4.47;80.10
84835;BME280;75078;42.636;23.198;2024-01-16T01:45:12;90694.88;;;4.45;79.04
84835;BME280;75078;42.636;23.198;2024-01-16T01:47:39;90698.09;;;4.42;79.90
84835;BME280;75078;42.636;23.198;2024-01-16T01:50:06;90701.66;;;4.37;80.25
84835;BME280;75078;42.636;23.198;2024-01-16T01:52:33;90705.56;;;4.31;81.51
84835;BME280;75078;42.636;23.198;2024-01-16T01:54:59;90698.94;;;4.26;81.87
84835;BME280;75078;42.636;23.198;2024-01-16T01:57:25;90705.81;;;4.22;81.26
84835;BME280;75078;42.636;23.198;2024-01-16T01:59:51;90704.31;;;4.21;81.35
84835;BME280;75078;42.636;23.198;2024-01-16T02:02:16;90703.66;;;4.24;81.52
84835;BME280;75078;42.636;23.198;2024-01-16T02:04:43;90715.69;;;4.27;81.12
84835;BME280;75078;42.636;23.198;2024-01-16T02:07:09;90713.88;;;4.28;82.12
84835;BME280;75078;42.636;23.198;2024-01-16T02:09:35;90713.56;;;4.29;82.65
84835;BME280;75078;42.636;23.198;2024-01-16T02:12:01;90719.31;;;4.26;83.08
84835;BME280;75078;42.636;23.198;2024-01-16T02:14:27;90726.19;;;4.22;82.42
84835;BME280;75078;42.636;23.198;2024-01-16T02:16:53;90730.25;;;4.27;82.03
84835;BME280;75078;42.636;23.198;2024-01-16T02:19:18;90735.66;;;4.25;82.78
84835;BME280;75078;42.636;23.198;2024-01-16T02:21:46;90743.25;;;4.22;82.45
84835;BME280;75078;42.636;23.198;2024-01-16T02:24:14;90743.63;;;4.20;83.12
84835;BME280;75078;42.636;23.198;2024-01-16T02:26:40;90749.75;;;4.19;83.45
84835;BME280;75078;42.636;23.198;2024-01-16T02:29:06;90743.88;;;4.15;83.59
84835;BME280;75078;42.636;23.198;2024-01-16T02:31:32;90739.81;;;4.11;83.43
84835;BME280;75078;42.636;23.198;2024-01-16T02:33:58;90741.59;;;4.10;83.31
84835;BME280;75078;42.636;23.198;2024-01-16T02:36:24;90750.31;;;4.09;84.15
84835;BME280;75078;42.636;23.198;2024-01-16T02:38:50;90760.91;;;4.11;84.41
84835;BME280;75078;42.636;23.198;2024-01-16T02:41:16;90774.31;;;4.08;83.43
84835;BME280;75078;42.636;23.198;2024-01-16T02:43:42;90782.34;;;4.10;83.62
84835;BME280;75078;42.636;23.198;2024-01-16T02:46:08;90780.16;;;4.09;83.73
84835;BME280;75078;42.636;23.198;2024-01-16T02:48:37;90782.41;;;3.95;84.90
84835;BME280;75078;42.636;23.198;2024-01-16T02:51:03;90769.22;;;3.89;84.77
84835;BME280;75078;42.636;23.198;2024-01-16T02:53:31;90784.09;;;3.87;84.85
84835;BME280;75078;42.636;23.198;2024-01-16T02:55:57;90782.34;;;3.91;84.51
84835;BME280;75078;42.636;23.198;2024-01-16T02:58:28;90776.19;;;3.92;84.81
84835;BME280;75078;42.636;23.198;2024-01-16T03:00:55;90782.34;;;3.91;85.08
84835;BME280;75078;42.636;23.198;2024-01-16T03:03:20;90784.56;;;3.93;84.76
84835;BME280;75078;42.636;23.198;2024-01-16T03:05:47;90788.53;;;3.90;85.04
84835;BME280;75078;42.636;23.198;2024-01-16T03:08:12;90790.81;;;3.95;84.58
84835;BME280;75078;42.636;23.198;2024-01-16T03:10:38;90800.28;;;3.98;84.30
84835;BME280;75078;42.636;23.198;2024-01-16T03:13:03;90801.78;;;3.99;84.62
84835;BME280;75078;42.636;23.198;2024-01-16T03:15:29;90809.22;;;4.08;84.21
84835;BME280;75078;42.636;23.198;2024-01-16T03:17:58;90810.75;;;4.12;83.92
84835;BME280;75078;42.636;23.198;2024-01-16T03:20:23;90812.63;;;4.15;83.74
84835;BME280;75078;42.636;23.198;2024-01-16T03:22:49;90820.72;;;4.21;82.68
84835;BME280;75078;42.636;23.198;2024-01-16T03:25:16;90829.78;;;4.18;83.35
84835;BME280;75078;42.636;23.198;2024-01-16T03:27:42;90837.16;;;4.23;82.91
84835;BME280;75078;42.636;23.198;2024-01-16T03:30:08;90843.72;;;4.24;82.37
84835;BME280;75078;42.636;23.198;2024-01-16T03:32:35;90845.31;;;4.32;82.01
84835;BME280;75078;42.636;23.198;2024-01-16T03:35:00;90850.97;;;4.22;82.79
84835;BME280;75078;42.636;23.198;2024-01-16T03:37:26;90862.22;;;4.21;82.99
84835;BME280;75078;42.636;23.198;2024-01-16T03:39:51;90863.88;;;4.14;82.64
84835;BME280;75078;42.636;23.198;2024-01-16T03:42:17;90873.88;;;4.03;82.12
84835;BME280;75078;42.636;23.198;2024-01-16T03:44:42;90881.50;;;3.84;82.85
84835;BME280;75078;42.636;23.198;2024-01-16T03:47:08;90885.91;;;3.87;82.56
84835;BME280;75078;42.636;23.198;2024-01-16T03:49:33;90883.09;;;3.92;81.82
84835;BME280;75078;42.636;23.198;2024-01-16T03:51:59;90883.16;;;3.96;82.62
84835;BME280;75078;42.636;23.198;2024-01-16T03:54:24;90890.63;;;4.04;80.88
84835;BME280;75078;42.636;23.198;2024-01-16T03:56:50;90901.53;;;4.05;81.06
84835;BME280;75078;42.636;23.198;2024-01-16T03:59:16;90903.72;;;3.87;81.25
84835;BME280;75078;42.636;23.198;2024-01-16T04:01:41;90915.75;;;3.71;81.41
84835;BME280;75078;42.636;23.198;2024-01-16T04:04:09;90930.03;;;3.60;80.57
84835;BME280;75078;42.636;23.198;2024-01-16T04:06:35;90938.81;;;3.47;80.75
84835;BME280;75078;42.636;23.198;2024-01-16T04:09:01;90945.06;;;3.34;81.51
84835;BME280;75078;42.636;23.198;2024-01-16T04:11:26;90951.94;;;3.18;81.64
84835;BME280;75078;42.636;23.198;2024-01-16T04:13:51;90958.31;;;2.96;82.04
84835;BME280;75078;42.636;23.198;2024-01-16T04:16:17;90954.84;;;2.88;82.08
84835;BME280;75078;42.636;23.198;2024-01-16T04:18:43;90953.63;;;2.82;81.88
84835;BME280;75078;42.636;23.198;2024-01-16T04:21:09;90959.56;;;2.74;81.78
84835;BME280;75078;42.636;23.198;2024-01-16T04:23:34;90968.34;;;2.77;82.41
84835;BME280;75078;42.636;23.198;2024-01-16T04:26:00;90965.28;;;2.71;81.75
84835;BME280;75078;42.636;23.198;2024-01-16T04:28:25;90973.34;;;2.73;82.27
84835;BME280;75078;42.636;23.198;2024-01-16T04:30:51;90973.38;;;2.61;83.04
84835;BME280;75078;42.636;23.198;2024-01-16T04:33:17;90996.25;;;2.61;83.02
84835;BME280;75078;42.636;23.198;2024-01-16T04:35:42;90992.94;;;2.61;83.04
84835;BME280;75078;42.636;23.198;2024-01-16T04:38:07;90986.72;;;2.58;82.20
84835;BME280;75078;42.636;23.198;2024-01-16T04:40:33;90997.00;;;2.62;82.45
84835;BME280;75078;42.636;23.198;2024-01-16T04:42:59;91003.44;;;2.59;81.12
84835;BME280;75078;42.636;23.198;2024-01-16T04:45:25;91015.25;;;2.67;81.17
84835;BME280;75078;42.636;23.198;2024-01-16T04:47:50;91021.91;;;2.72;81.81
84835;BME280;75078;42.636;23.198;2024-01-16T04:50:16;91016.56;;;2.61;81.25
84835;BME280;75078;42.636;23.198;2024-01-16T04:52:41;91018.75;;;2.35;82.66
84835;BME280;75078;42.636;23.198;2024-01-16T04:55:06;91040.03;;;2.18;82.66
84835;BME280;75078;42.636;23.198;2024-01-16T04:57:32;91039.19;;;2.14;82.47
84835;BME280;75078;42.636;23.198;2024-01-16T04:59:58;91050.06;;;2.15;83.29
84835;BME280;75078;42.636;23.198;2024-01-16T05:02:24;91057.25;;;2.13;83.04
84835;BME280;75078;42.636;23.198;2024-01-16T05:04:49;91065.72;;;2.05;81.28
84835;BME280;75078;42.636;23.198;2024-01-16T05:07:17;91068.78;;;2.10;81.05
84835;BME280;75078;42.636;23.198;2024-01-16T05:09:44;91075.97;;;2.21;81.84
84835;BME280;75078;42.636;23.198;2024-01-16T05:12:10;91084.31;;;2.33;80.78
84835;BME280;75078;42.636;23.198;2024-01-16T05:14:35;91091.84;;;2.30;78.91
84835;BME280;75078;42.636;23.198;2024-01-16T05:17:01;91090.25;;;2.25;79.56
84835;BME280;75078;42.636;23.198;2024-01-16T05:19:26;91104.34;;;2.35;81.56
84835;BME280;75078;42.636;23.198;2024-01-16T05:21:51;91110.16;;;2.35;80.86
84835;BME280;75078;42.636;23.198;2024-01-16T05:24:17;91128.75;;;2.27;81.88
84835;BME280;75078;42.636;23.198;2024-01-16T05:26:42;91139.03;;;2.31;80.78
84835;BME280;75078;42.636;23.198;2024-01-16T05:29:08;91134.91;;;2.38;78.17
84835;BME280;75078;42.636;23.198;2024-01-16T05:31:39;91139.34;;;2.17;77.66
84835;BME280;75078;42.636;23.198;2024-01-16T05:34:05;91138.03;;;1.87;77.49
84835;BME280;75078;42.636;23.198;2024-01-16T05:36:30;91159.47;;;1.44;79.27
84835;BME280;75078;42.636;23.198;2024-01-16T05:38:55;91167.19;;;1.27;79.48
84835;BME280;75078;42.636;23.198;2024-01-16T05:41:21;91177.97;;;1.04;81.87
84835;BME280;75078;42.636;23.198;2024-01-16T05:43:46;91194.34;;;1.06;82.59
84835;BME280;75078;42.636;23.198;2024-01-16T05:46:12;91203.69;;;1.14;80.86
84835;BME280;75078;42.636;23.198;2024-01-16T05:48:38;91227.66;;;1.17;80.78
84835;BME280;75078;42.636;23.198;2024-01-16T05:51:03;91228.59;;;1.12;80.57
84835;BME280;75078;42.636;23.198;2024-01-16T05:53:29;91230.94;;;1.17;80.43
84835;BME280;75078;42.636;23.198;2024-01-16T05:55:55;91235.44;;;1.12;76.73
84835;BME280;75078;42.636;23.198;2024-01-16T05:58:21;91230.25;;;1.08;78.24
84835;BME280;75078;42.636;23.198;2024-01-16T06:00:47;91239.97;;;1.06;79.13
84835;BME280;75078;42.636;23.198;2024-01-16T06:03:12;91244.75;;;0.99;77.93
84835;BME280;75078;42.636;23.198;2024-01-16T06:05:38;91257.91;;;0.93;78.50
84835;BME280;75078;42.636;23.198;2024-01-16T06:08:03;91257.34;;;0.87;75.94
84835;BME280;75078;42.636;23.198;2024-01-16T06:10:29;91259.13;;;0.87;75.61
84835;BME280;75078;42.636;23.198;2024-01-16T06:12:54;91275.44;;;0.68;76.86
84835;BME280;75078;42.636;23.198;2024-01-16T06:15:19;91280.38;;;0.65;78.13
84835;BME280;75078;42.636;23.198;2024-01-16T06:17:45;91284.13;;;0.50;78.30
84835;BME280;75078;42.636;23.198;2024-01-16T06:20:10;91299.66;;;0.40;79.61
84835;BME280;75078;42.636;23.198;2024-01-16T06:22:36;91325.09;;;0.44;78.24
84835;BME280;75078;42.636;23.198;2024-01-16T06:25:01;91305.00;;;0.47;78.32
84835;BME280;75078;42.636;23.198;2024-01-16T06:27:27;91315.13;;;0.39;77.31
84835;BME280;75078;42.636;23.198;2024-01-16T06:29:52;91314.59;;;0.25;77.76
84835;BME280;75078;42.636;23.198;2024-01-16T06:32:18;91311.47;;;0.11;77.80
84835;BME280;75078;42.636;23.198;2024-01-16T06:34:44;91315.47;;;0.12;77.92
84835;BME280;75078;42.636;23.198;2024-01-16T06:37:09;91312.66;;;0.05;78.08
84835;BME280;75078;42.636;23.198;2024-01-16T06:39:35;91321.44;;;0.07;78.19
84835;BME280;75078;42.636;23.198;2024-01-16T06:42:01;91334.84;;;0.08;77.02
84835;BME280;75078;42.636;23.198;2024-01-16T06:44:27;91334.38;;;0.06;77.04
84835;BME280;75078;42.636;23.198;2024-01-16T06:46:52;91337.81;;;0.10;77.81
84835;BME280;75078;42.636;23.198;2024-01-16T06:49:17;91338.25;;;0.12;74.77
84835;BME280;75078;42.636;23.198;2024-01-16T06:51:43;91354.78;;;0.18;74.03
84835;BME280;75078;42.636;23.198;2024-01-16T06:54:08;91360.28;;;0.20;73.56
84835;BME280;75078;42.636;23.198;2024-01-16T06:56:33;91360.59;;;0.27;74.32
84835;BME280;75078;42.636;23.198;2024-01-16T06:58:59;91371.88;;;0.38;74.39
84835;BME280;75078;42.636;23.198;2024-01-16T07:01:24;91376.81;;;0.43;72.40
84835;BME280;75078;42.636;23.198;2024-01-16T07:03:50;91385.28;;;0.47;72.98
84835;BME280;75078;42.636;23.198;2024-01-16T07:06:15;91391.81;;;0.48;72.85
84835;BME280;75078;42.636;23.198;2024-01-16T07:08:41;91400.00;;;0.53;72.27
84835;BME280;75078;42.636;23.198;2024-01-16T07:11:06;91409.38;;;0.61;69.22
84835;BME280;75078;42.636;23.198;2024-01-16T07:13:34;91425.47;;;0.74;71.78
84835;BME280;75078;42.636;23.198;2024-01-16T07:16:00;91439.91;;;0.73;71.34
84835;BME280;75078;42.636;23.198;2024-01-16T07:18:27;91448.25;;;0.74;70.82
84835;BME280;75078;42.636;23.198;2024-01-16T07:20:53;91442.56;;;0.77;71.66
84835;BME280;75078;42.636;23.198;2024-01-16T07:23:18;91453.19;;;0.79;68.29
84835;BME280;75078;42.636;23.198;2024-01-16T07:25:44;91462.25;;;0.71;66.97
84835;BME280;75078;42.636;23.198;2024-01-16T07:28:09;91471.63;;;0.45;68.69
84835;BME280;75078;42.636;23.198;2024-01-16T07:30:35;91475.97;;;0.53;68.54
84835;BME280;75078;42.636;23.198;2024-01-16T07:33:02;91477.03;;;0.61;69.31
84835;BME280;75078;42.636;23.198;2024-01-16T07:35:27;91475.53;;;0.60;69.46
84835;BME280;75078;42.636;23.198;2024-01-16T07:37:53;91472.22;;;0.68;68.94
84835;BME280;75078;42.636;23.198;2024-01-16T07:40:18;91478.22;;;0.72;68.64
84835;BME280;75078;42.636;23.198;2024-01-16T07:42:44;91484.75;;;0.73;67.38
84835;BME280;75078;42.636;23.198;2024-01-16T07:45:09;91482.09;;;0.61;68.49
84835;BME280;75078;42.636;23.198;2024-01-16T07:47:35;91495.91;;;0.63;69.45
84835;BME280;75078;42.636;23.198;2024-01-16T07:50:01;91505.31;;;0.63;67.54
84835;BME280;75078;42.636;23.198;2024-01-16T07:52:27;91507.69;;;0.68;68.19
84835;BME280;75078;42.636;23.198;2024-01-16T07:54:53;91509.50;;;0.76;67.29
84835;BME280;75078;42.636;23.198;2024-01-16T07:57:19;91508.16;;;0.79;68.92
84835;BME280;75078;42.636;23.198;2024-01-16T07:59:44;91505.31;;;0.80;69.80
84835;BME280;75078;42.636;23.198;2024-01-16T08:02:09;91513.34;;;0.91;68.70
84835;BME280;75078;42.636;23.198;2024-01-16T08:04:35;91504.41;;;0.93;69.63
84835;BME280;75078;42.636;23.198;2024-01-16T08:07:01;91509.47;;;1.02;69.43
84835;BME280;75078;42.636;23.198;2024-01-16T08:09:26;91520.66;;;1.01;67.71
84835;BME280;75078;42.636;23.198;2024-01-16T08:11:52;91532.28;;;1.10;67.89
84835;BME280;75078;42.636;23.198;2024-01-16T08:14:17;91540.78;;;0.97;68.52
84835;BME280;75078;42.636;23.198;2024-01-16T08:16:42;91531.97;;;0.86;68.00
84835;BME280;75078;42.636;23.198;2024-01-16T08:19:08;91541.06;;;0.96;67.76
84835;BME280;75078;42.636;23.198;2024-01-16T08:21:33;91533.91;;;0.98;69.51
84835;BME280;75078;42.636;23.198;2024-01-16T08:23:58;91543.16;;;1.02;68.43
84835;BME280;75078;42.636;23.198;2024-01-16T08:26:24;91561.78;;;0.81;69.65
84835;BME280;75078;42.636;23.198;2024-01-16T08:28:50;91565.22;;;0.85;68.38
84835;BME280;75078;42.636;23.198;2024-01-16T08:31:18;91570.13;;;0.90;68.27
84835;BME280;75078;42.636;23.198;2024-01-16T08:33:44;91573.72;;;0.97;68.50
84835;BME280;75078;42.636;23.198;2024-01-16T08:36:10;91576.53;;;0.96;69.90
84835;BME280;75078;42.636;23.198;2024-01-16T08:38:35;91590.41;;;0.90;68.90
84835;BME280;75078;42.636;23.198;2024-01-16T08:41:00;91595.03;;;0.96;69.30
84835;BME280;75078;42.636;23.198;2024-01-16T08:43:26;91597.28;;;1.06;71.11
84835;BME280;75078;42.636;23.198;2024-01-16T08:45:51;91601.59;;;1.14;69.59
84835;BME280;75078;42.636;23.198;2024-01-16T08:48:16;91600.38;;;1.20;68.91
84835;BME280;75078;42.636;23.198;2024-01-16T08:50:42;91622.19;;;1.21;67.53
84835;BME280;75078;42.636;23.198;2024-01-16T08:53:07;91626.81;;;1.11;68.37
84835;BME280;75078;42.636;23.198;2024-01-16T08:55:33;91617.84;;;1.05;69.03
84835;BME280;75078;42.636;23.198;2024-01-16T08:57:58;91629.31;;;1.02;68.01
84835;BME280;75078;42.636;23.198;2024-01-16T09:00:24;91624.25;;;1.02;66.68
84835;BME280;75078;42.636;23.198;2024-01-16T09:02:49;91623.06;;;1.08;69.01
84835;BME280;75078;42.636;23.198;2024-01-16T09:05:15;91616.06;;;1.14;68.67
84835;BME280;75078;42.636;23.198;2024-01-16T09:07:41;91611.72;;;1.06;67.43
84835;BME280;75078;42.636;23.198;2024-01-16T09:10:07;91627.84;;;1.10;66.54
84835;BME280;75078;42.636;23.198;2024-01-16T09:12:33;91624.09;;;1.16;66.23
84835;BME280;75078;42.636;23.198;2024-01-16T09:14:58;91626.03;;;1.27;68.13
84835;BME280;75078;42.636;23.198;2024-01-16T09:17:24;91625.91;;;1.32;66.25
84835;BME280;75078;42.636;23.198;2024-01-16T09:19:51;91626.94;;;1.40;67.08
84835;BME280;75078;42.636;23.198;2024-01-16T09:22:17;91632.16;;;1.43;66.41
84835;BME280;75078;42.636;23.198;2024-01-16T09:24:43;91637.06;;;1.49;65.25
84835;BME280;75078;42.636;23.198;2024-01-16T09:27:08;91634.97;;;1.51;64.98
84835;BME280;75078;42.636;23.198;2024-01-16T09:29:35;91633.78;;;1.57;66.29
84835;BME280;75078;42.636;23.198;2024-01-16T09:32:01;91628.41;;;1.50;66.25
84835;BME280;75078;42.636;23.198;2024-01-16T09:34:26;91635.72;;;1.60;65.76
84835;BME280;75078;42.636;23.198;2024-01-16T09:36:52;91627.34;;;1.68;65.95
84835;BME280;75078;42.636;23.198;2024-01-16T09:39:17;91627.53;;;1.63;66.52
84835;BME280;75078;42.636;23.198;2024-01-16T09:41:44;91638.84;;;1.74;66.10
84835;BME280;75078;42.636;23.198;2024-01-16T09:44:09;91647.47;;;1.81;66.16
84835;BME280;75078;42.636;23.198;2024-01-16T09:46:37;91649.84;;;1.86;64.88
84835;BME280;75078;42.636;23.198;2024-01-16T09:49:03;91645.09;;;1.85;64.31
84835;BME280;75078;42.636;23.198;2024-01-16T09:51:29;91651.34;;;1.87;64.97
84835;BME280;75078;42.636;23.198;2024-01-16T09:53:55;91634.00;;;1.98;64.23
84835;BME280;75078;42.636;23.198;2024-01-16T09:56:22;91632.06;;;2.03;62.63
84835;BME280;75078;42.636;23.198;2024-01-16T09:58:50;91623.78;;;2.15;62.54
84835;BME280;75078;42.636;23.198;2024-01-16T10:01:19;91622.59;;;2.21;63.01
84835;BME280;75078;42.636;23.198;2024-01-16T10:03:45;91623.00;;;2.32;63.76
84835;BME280;75078;42.636;23.198;2024-01-16T10:06:10;91629.09;;;2.39;62.23
84835;BME280;75078;42.636;23.198;2024-01-16T10:08:37;91625.63;;;2.44;62.85
84835;BME280;75078;42.636;23.198;2024-01-16T10:11:03;91630.63;;;2.61;61.31
84835;BME280;75078;42.636;23.198;2024-01-16T10:13:30;91641.38;;;2.66;60.22
84835;BME280;75078;42.636;23.198;2024-01-16T10:15:56;91644.78;;;2.70;63.04
84835;BME280;75078;42.636;23.198;2024-01-16T10:18:23;91649.97;;;2.53;59.80
84835;BME280;75078;42.636;23.198;2024-01-16T10:20:49;91635.22;;;2.67;64.18
84835;BME280;75078;42.636;23.198;2024-01-16T10:23:24;91640.84;;;2.81;62.23
84835;BME280;75078;42.636;23.198;2024-01-16T10:28:42;91642.34;;;3.03;61.85
84835;BME280;75078;42.636;23.198;2024-01-16T10:31:09;91644.03;;;3.20;60.65
84835;BME280;75078;42.636;23.198;2024-01-16T10:33:36;91635.22;;;3.38;61.42
84835;BME280;75078;42.636;23.198;2024-01-16T10:36:15;91632.06;;;3.41;59.57
84835;BME280;75078;42.636;23.198;2024-01-16T10:38:46;91636.66;;;3.27;57.92
84835;BME280;75078;42.636;23.198;2024-01-16T10:41:13;91647.69;;;3.10;59.66
84835;BME280;75078;42.636;23.198;2024-01-16T10:43:39;91637.28;;;3.24;57.36
84835;BME280;75078;42.636;23.198;2024-01-16T10:46:11;91640.75;;;3.40;57.62
84835;BME280;75078;42.636;23.198;2024-01-16T10:48:38;91633.09;;;3.60;59.39
84835;BME280;75078;42.636;23.198;2024-01-16T10:51:06;91624.81;;;3.96;58.19
84835;BME280;75078;42.636;23.198;2024-01-16T10:53:33;91624.84;;;4.08;57.50
84835;BME280;75078;42.636;23.198;2024-01-16T10:56:02;91643.31;;;4.05;58.17
84835;BME280;75078;42.636;23.198;2024-01-16T10:58:30;91642.56;;;3.72;55.00
84835;BME280;75078;42.636;23.198;2024-01-16T11:00:58;91647.66;;;3.72;55.23
84835;BME280;75078;42.636;23.198;2024-01-16T11:03:35;91650.09;;;3.69;55.94
84835;BME280;75078;42.636;23.198;2024-01-16T11:06:05;91645.97;;;3.64;54.57
84835;BME280;75078;42.636;23.198;2024-01-16T11:08:31;91645.97;;;3.64;54.86
84835;BME280;75078;42.636;23.198;2024-01-16T11:11:01;91652.34;;;3.49;55.24
84835;BME280;75078;42.636;23.198;2024-01-16T11:13:31;91651.16;;;3.47;55.21
84835;BME280;75078;42.636;23.198;2024-01-16T11:15:57;91652.66;;;3.48;55.71
84835;BME280;75078;42.636;23.198;2024-01-16T11:18:24;91644.66;;;3.17;55.40
84835;BME280;75078;42.636;23.198;2024-01-16T11:20:51;91653.44;;;2.99;59.70
84835;BME280;75078;42.636;23.198;2024-01-16T11:23:17;91651.66;;;3.20;57.89
84835;BME280;75078;42.636;23.198;2024-01-16T11:25:42;91646.22;;;3.30;57.71
84835;BME280;75078;42.636;23.198;2024-01-16T11:28:08;91643.72;;;3.42;55.86
84835;BME280;75078;42.636;23.198;2024-01-16T11:30:35;91647.34;;;3.41;56.54
84835;BME280;75078;42.636;23.198;2024-01-16T11:33:01;91651.66;;;3.40;58.67
84835;BME280;75078;42.636;23.198;2024-01-16T11:35:36;91658.00;;;3.55;57.84
84835;BME280;75078;42.636;23.198;2024-01-16T11:38:07;91652.28;;;3.58;57.73
84835;BME280;75078;42.636;23.198;2024-01-16T11:40:34;91656.63;;;3.57;57.26
84835;BME280;75078;42.636;23.198;2024-01-16T11:43:40;91662.44;;;3.58;57.51
84835;BME280;75078;42.636;23.198;2024-01-16T11:46:06;91659.81;;;3.54;55.51
84835;BME280;75078;42.636;23.198;2024-01-16T11:48:35;91658.00;;;3.55;56.23
84835;BME280;75078;42.636;23.198;2024-01-16T11:51:24;91659.91;;;3.58;55.98
84835;BME280;75078;42.636;23.198;2024-01-16T11:53:49;91653.13;;;3.62;57.63
84835;BME280;75078;42.636;23.198;2024-01-16T12:01:31;91670.28;;;3.53;55.73
84835;BME280;75078;42.636;23.198;2024-01-16T12:04:07;91683.81;;;3.45;56.63
84835;BME280;75078;42.636;23.198;2024-01-16T12:06:34;91682.03;;;3.45;59.35
84835;BME280;75078;42.636;23.198;2024-01-16T12:09:12;91687.16;;;3.57;58.33
84835;BME280;75078;42.636;23.198;2024-01-16T12:11:39;91694.09;;;3.69;56.73
84835;BME280;75078;42.636;23.198;2024-01-16T12:14:04;91682.81;;;3.79;56.50
84835;BME280;75078;42.636;23.198;2024-01-16T12:16:30;91677.72;;;3.58;57.08
84835;BME280;75078;42.636;23.198;2024-01-16T12:19:06;91684.75;;;3.61;59.39
84835;BME280;75078;42.636;23.198;2024-01-16T12:21:43;91686.53;;;3.40;60.55
84835;BME280;75078;42.636;23.198;2024-01-16T12:24:12;91689.34;;;3.47;59.77
84835;BME280;75078;42.636;23.198;2024-01-16T12:26:38;91690.63;;;3.53;61.37
84835;BME280;75078;42.636;23.198;2024-01-16T12:29:04;91693.66;;;3.46;60.54
84835;BME280;75078;42.636;23.198;2024-01-16T12:31:30;91693.66;;;3.26;61.28
84835;BME280;75078;42.636;23.198;2024-01-16T12:34:08;91700.06;;;3.32;61.78
84835;BME280;75078;42.636;23.198;2024-01-16T12:36:34;91702.22;;;3.21;61.57
84835;BME280;75078;42.636;23.198;2024-01-16T12:39:00;91696.09;;;3.22;61.26
84835;BME280;75078;42.636;23.198;2024-01-16T12:41:38;91708.97;;;3.17;64.01
84835;BME280;75078;42.636;23.198;2024-01-16T12:44:06;91707.34;;;3.13;61.75
84835;BME280;75078;42.636;23.198;2024-01-16T12:46:31;91707.06;;;3.14;61.71
84835;BME280;75078;42.636;23.198;2024-01-16T12:49:01;91703.00;;;3.13;63.82
84835;BME280;75078;42.636;23.198;2024-01-16T12:51:27;91698.75;;;3.26;63.95
84835;BME280;75078;42.636;23.198;2024-01-16T12:53:53;91688.66;;;3.38;62.52
84835;BME280;75078;42.636;23.198;2024-01-16T12:56:19;91697.78;;;3.39;62.33
84835;BME280;75078;42.636;23.198;2024-01-16T12:58:46;91706.38;;;3.26;62.00
84835;BME280;75078;42.636;23.198;2024-01-16T13:01:43;91696.34;;;3.50;61.59
84835;BME280;75078;42.636;23.198;2024-01-16T13:04:10;91694.84;;;3.49;60.85